sensor_id;sensor_type;location;lat;lon;timestamp;temperature;humidity
67641;SHT31;54434;50.096;20.082;2022-08-21T00:02:03;19.23;85.61
67641;SHT31;54434;50.096;20.082;2022-08-21T00:04:48;19.22;85.66
67641;SHT31;54434;50.096;20.082;2022-08-21T00:07:27;19.21;85.66
67641;SHT31;54434;50.096;20.082;2022-08-21T00:10:06;19.20;85.75
67641;SHT31;54434;50.096;20.082;2022-08-21T00:12:43;19.19;85.91
67641;SHT31;54434;50.096;20.082;2022-08-21T00:15:22;19.17;85.86
67641;SHT31;54434;50.096;20.082;2022-08-21T00:18:02;19.15;85.80
67641;SHT31;54434;50.096;20.082;2022-08-21T00:20:41;19.14;85.74
67641;SHT31;54434;50.096;20.082;2022-08-21T00:23:18;19.11;85.71
67641;SHT31;54434;50.096;20.082;2022-08-21T00:25:55;19.10;85.67
67641;SHT31;54434;50.096;20.082;2022-08-21T00:28:32;19.10;85.69
67641;SHT31;54434;50.096;20.082;2022-08-21T00:31:09;19.10;85.62
67641;SHT31;54434;50.096;20.082;2022-08-21T00:33:45;19.08;85.60
67641;SHT31;54434;50.096;20.082;2022-08-21T00:36:21;19.07;85.60
67641;SHT31;54434;50.096;20.082;2022-08-21T00:38:57;19.07;85.61
67641;SHT31;54434;50.096;20.082;2022-08-21T00:41:35;19.05;85.60
67641;SHT31;54434;50.096;20.082;2022-08-21T00:44:14;19.04;85.59
67641;SHT31;54434;50.096;20.082;2022-08-21T00:46:50;19.02;85.60
67641;SHT31;54434;50.096;20.082;2022-08-21T00:49:26;19.01;85.59
67641;SHT31;54434;50.096;20.082;2022-08-21T00:52:02;19.00;85.53
67641;SHT31;54434;50.096;20.082;2022-08-21T00:54:41;18.99;85.57
67641;SHT31;54434;50.096;20.082;2022-08-21T00:57:22;18.96;85.64
67641;SHT31;54434;50.096;20.082;2022-08-21T01:00:13;18.95;85.67
67641;SHT31;54434;50.096;20.082;2022-08-21T01:02:57;18.94;85.66
67641;SHT31;54434;50.096;20.082;2022-08-21T01:05:40;18.90;85.69
67641;SHT31;54434;50.096;20.082;2022-08-21T01:08:18;18.89;85.74
67641;SHT31;54434;50.096;20.082;2022-08-21T01:10:55;18.87;85.79
67641;SHT31;54434;50.096;20.082;2022-08-21T01:13:35;18.85;85.79
67641;SHT31;54434;50.096;20.082;2022-08-21T01:16:19;18.84;85.83
67641;SHT31;54434;50.096;20.082;2022-08-21T01:18:56;18.80;85.98
67641;SHT31;54434;50.096;20.082;2022-08-21T01:21:33;18.77;86.11
67641;SHT31;54434;50.096;20.082;2022-08-21T01:24:09;18.76;86.21
67641;SHT31;54434;50.096;20.082;2022-08-21T01:26:46;18.75;86.42
67641;SHT31;54434;50.096;20.082;2022-08-21T01:29:29;18.74;86.57
67641;SHT31;54434;50.096;20.082;2022-08-21T01:32:12;18.73;86.68
67641;SHT31;54434;50.096;20.082;2022-08-21T01:34:52;18.73;86.63
67641;SHT31;54434;50.096;20.082;2022-08-21T01:37:28;18.73;86.61
67641;SHT31;54434;50.096;20.082;2022-08-21T01:40:05;18.73;86.60
67641;SHT31;54434;50.096;20.082;2022-08-21T01:42:44;18.73;86.50
67641;SHT31;54434;50.096;20.082;2022-08-21T01:45:20;18.72;86.50
67641;SHT31;54434;50.096;20.082;2022-08-21T01:47:57;18.72;86.42
67641;SHT31;54434;50.096;20.082;2022-08-21T01:50:35;18.72;86.40
67641;SHT31;54434;50.096;20.082;2022-08-21T01:53:10;18.72;86.45
67641;SHT31;54434;50.096;20.082;2022-08-21T01:55:46;18.71;86.49
67641;SHT31;54434;50.096;20.082;2022-08-21T01:58:22;18.70;86.53
67641;SHT31;54434;50.096;20.082;2022-08-21T02:00:58;18.67;86.60
67641;SHT31;54434;50.096;20.082;2022-08-21T02:03:35;18.65;86.57
67641;SHT31;54434;50.096;20.082;2022-08-21T02:06:15;18.62;86.50
67641;SHT31;54434;50.096;20.082;2022-08-21T02:08:51;18.60;86.50
67641;SHT31;54434;50.096;20.082;2022-08-21T02:11:27;18.58;86.40
67641;SHT31;54434;50.096;20.082;2022-08-21T02:14:05;18.55;86.43
67641;SHT31;54434;50.096;20.082;2022-08-21T02:16:44;18.55;86.45
67641;SHT31;54434;50.096;20.082;2022-08-21T02:19:35;18.52;86.46
67641;SHT31;54434;50.096;20.082;2022-08-21T02:22:12;18.49;86.57
67641;SHT31;54434;50.096;20.082;2022-08-21T02:24:48;18.47;86.59
67641;SHT31;54434;50.096;20.082;2022-08-21T02:27:26;18.45;86.56
67641;SHT31;54434;50.096;20.082;2022-08-21T02:30:12;18.43;86.57
67641;SHT31;54434;50.096;20.082;2022-08-21T02:32:53;18.42;86.67
67641;SHT31;54434;50.096;20.082;2022-08-21T02:35:30;18.38;86.70
67641;SHT31;54434;50.096;20.082;2022-08-21T02:38:10;18.34;86.74
67641;SHT31;54434;50.096;20.082;2022-08-21T02:40:53;18.31;86.92
67641;SHT31;54434;50.096;20.082;2022-08-21T02:43:30;18.28;86.91
67641;SHT31;54434;50.096;20.082;2022-08-21T02:46:08;18.27;86.96
67641;SHT31;54434;50.096;20.082;2022-08-21T02:48:47;18.22;86.99
67641;SHT31;54434;50.096;20.082;2022-08-21T02:51:23;18.21;86.93
67641;SHT31;54434;50.096;20.082;2022-08-21T02:53:59;18.20;86.85
67641;SHT31;54434;50.096;20.082;2022-08-21T02:56:35;18.19;86.80
67641;SHT31;54434;50.096;20.082;2022-08-21T02:59:11;18.18;86.84
67641;SHT31;54434;50.096;20.082;2022-08-21T03:01:47;18.17;86.97
67641;SHT31;54434;50.096;20.082;2022-08-21T03:04:23;18.16;87.11
67641;SHT31;54434;50.096;20.082;2022-08-21T03:06:59;18.15;87.24
67641;SHT31;54434;50.096;20.082;2022-08-21T03:09:41;18.15;87.17
67641;SHT31;54434;50.096;20.082;2022-08-21T03:12:26;18.14;87.18
67641;SHT31;54434;50.096;20.082;2022-08-21T03:15:02;18.13;87.16
67641;SHT31;54434;50.096;20.082;2022-08-21T03:17:41;18.12;87.11
67641;SHT31;54434;50.096;20.082;2022-08-21T03:20:20;18.11;87.20
67641;SHT31;54434;50.096;20.082;2022-08-21T03:23:01;18.11;87.15
67641;SHT31;54434;50.096;20.082;2022-08-21T03:25:45;18.10;87.16
67641;SHT31;54434;50.096;20.082;2022-08-21T03:28:26;18.10;87.24
67641;SHT31;54434;50.096;20.082;2022-08-21T03:31:02;18.11;87.43
67641;SHT31;54434;50.096;20.082;2022-08-21T03:33:38;18.13;87.58
67641;SHT31;54434;50.096;20.082;2022-08-21T03:36:14;18.15;87.77
67641;SHT31;54434;50.096;20.082;2022-08-21T03:38:51;18.16;87.85
67641;SHT31;54434;50.096;20.082;2022-08-21T03:41:27;18.20;87.96
67641;SHT31;54434;50.096;20.082;2022-08-21T03:44:04;18.22;88.02
67641;SHT31;54434;50.096;20.082;2022-08-21T03:46:40;18.26;88.10
67641;SHT31;54434;50.096;20.082;2022-08-21T03:49:16;18.27;88.17
67641;SHT31;54434;50.096;20.082;2022-08-21T03:51:52;18.31;88.14
67641;SHT31;54434;50.096;20.082;2022-08-21T03:54:30;18.33;88.20
67641;SHT31;54434;50.096;20.082;2022-08-21T03:57:06;18.33;88.20
67641;SHT31;54434;50.096;20.082;2022-08-21T03:59:43;18.31;88.19
67641;SHT31;54434;50.096;20.082;2022-08-21T04:02:20;18.33;88.20
67641;SHT31;54434;50.096;20.082;2022-08-21T04:04:56;18.35;88.10
67641;SHT31;54434;50.096;20.082;2022-08-21T04:07:33;18.38;88.03
67641;SHT31;54434;50.096;20.082;2022-08-21T04:10:10;18.41;87.95
67641;SHT31;54434;50.096;20.082;2022-08-21T04:12:47;18.44;87.86
67641;SHT31;54434;50.096;20.082;2022-08-21T04:15:24;18.48;87.90
67641;SHT31;54434;50.096;20.082;2022-08-21T04:18:02;18.52;87.91
67641;SHT31;54434;50.096;20.082;2022-08-21T04:20:40;18.55;87.80
67641;SHT31;54434;50.096;20.082;2022-08-21T04:23:22;18.58;87.81
67641;SHT31;54434;50.096;20.082;2022-08-21T04:25:58;18.60;87.80
67641;SHT31;54434;50.096;20.082;2022-08-21T04:28:34;18.66;87.85
67641;SHT31;54434;50.096;20.082;2022-08-21T04:31:10;18.71;87.90
67641;SHT31;54434;50.096;20.082;2022-08-21T04:33:47;18.80;87.94
67641;SHT31;54434;50.096;20.082;2022-08-21T04:36:22;18.87;88.15
67641;SHT31;54434;50.096;20.082;2022-08-21T04:38:59;18.93;88.23
67641;SHT31;54434;50.096;20.082;2022-08-21T04:41:35;19.00;88.16
67641;SHT31;54434;50.096;20.082;2022-08-21T04:44:13;19.06;88.11
67641;SHT31;54434;50.096;20.082;2022-08-21T04:46:49;19.13;88.08
67641;SHT31;54434;50.096;20.082;2022-08-21T04:49:25;19.18;88.03
67641;SHT31;54434;50.096;20.082;2022-08-21T04:52:02;19.25;88.01
67641;SHT31;54434;50.096;20.082;2022-08-21T04:54:39;19.29;87.94
67641;SHT31;54434;50.096;20.082;2022-08-21T04:57:17;19.36;87.85
67641;SHT31;54434;50.096;20.082;2022-08-21T05:00:16;19.40;87.72
67641;SHT31;54434;50.096;20.082;2022-08-21T05:02:55;19.48;87.68
67641;SHT31;54434;50.096;20.082;2022-08-21T05:05:35;19.56;87.64
67641;SHT31;54434;50.096;20.082;2022-08-21T05:08:14;19.63;87.48
67641;SHT31;54434;50.096;20.082;2022-08-21T05:10:56;19.78;87.45
67641;SHT31;54434;50.096;20.082;2022-08-21T05:13:33;19.92;87.15
67641;SHT31;54434;50.096;20.082;2022-08-21T05:16:09;20.09;86.69
67641;SHT31;54434;50.096;20.082;2022-08-21T05:19:05;20.18;86.22
67641;SHT31;54434;50.096;20.082;2022-08-21T05:21:44;20.29;86.16
67641;SHT31;54434;50.096;20.082;2022-08-21T05:24:21;20.33;85.62
67641;SHT31;54434;50.096;20.082;2022-08-21T05:26:58;20.32;85.50
67641;SHT31;54434;50.096;20.082;2022-08-21T05:29:34;20.29;85.58
67641;SHT31;54434;50.096;20.082;2022-08-21T05:32:13;20.32;85.66
67641;SHT31;54434;50.096;20.082;2022-08-21T05:34:49;20.38;85.65
67641;SHT31;54434;50.096;20.082;2022-08-21T05:37:25;20.48;85.31
67641;SHT31;54434;50.096;20.082;2022-08-21T05:40:02;20.52;85.28
67641;SHT31;54434;50.096;20.082;2022-08-21T05:42:54;20.64;85.14
67641;SHT31;54434;50.096;20.082;2022-08-21T05:45:32;20.73;84.98
67641;SHT31;54434;50.096;20.082;2022-08-21T05:48:16;20.79;84.61
67641;SHT31;54434;50.096;20.082;2022-08-21T05:50:55;20.84;84.28
67641;SHT31;54434;50.096;20.082;2022-08-21T05:53:36;20.91;84.19
67641;SHT31;54434;50.096;20.082;2022-08-21T05:56:14;21.02;84.27
67641;SHT31;54434;50.096;20.082;2022-08-21T05:58:51;21.16;83.91
67641;SHT31;54434;50.096;20.082;2022-08-21T06:01:27;21.25;83.65
67641;SHT31;54434;50.096;20.082;2022-08-21T06:04:04;21.35;83.22
67641;SHT31;54434;50.096;20.082;2022-08-21T06:06:40;21.43;83.09
67641;SHT31;54434;50.096;20.082;2022-08-21T06:09:16;21.49;82.78
67641;SHT31;54434;50.096;20.082;2022-08-21T06:11:53;21.58;82.65
67641;SHT31;54434;50.096;20.082;2022-08-21T06:14:29;21.72;82.26
67641;SHT31;54434;50.096;20.082;2022-08-21T06:17:06;21.80;82.16
67641;SHT31;54434;50.096;20.082;2022-08-21T06:19:45;21.85;81.59
67641;SHT31;54434;50.096;20.082;2022-08-21T06:22:25;21.84;81.45
67641;SHT31;54434;50.096;20.082;2022-08-21T06:25:02;21.88;81.59
67641;SHT31;54434;50.096;20.082;2022-08-21T06:27:40;21.98;81.24
67641;SHT31;54434;50.096;20.082;2022-08-21T06:30:17;22.04;80.91
67641;SHT31;54434;50.096;20.082;2022-08-21T06:32:53;22.14;80.70
67641;SHT31;54434;50.096;20.082;2022-08-21T06:35:30;22.17;80.56
67641;SHT31;54434;50.096;20.082;2022-08-21T06:38:12;22.18;80.23
67641;SHT31;54434;50.096;20.082;2022-08-21T06:40:46;22.18;80.18
67641;SHT31;54434;50.096;20.082;2022-08-21T06:43:22;22.19;80.26
67641;SHT31;54434;50.096;20.082;2022-08-21T06:46:10;22.36;79.88
67641;SHT31;54434;50.096;20.082;2022-08-21T06:48:46;22.48;79.62
67641;SHT31;54434;50.096;20.082;2022-08-21T06:51:22;22.57;79.35
67641;SHT31;54434;50.096;20.082;2022-08-21T06:53:59;22.66;79.14
67641;SHT31;54434;50.096;20.082;2022-08-21T06:56:36;22.75;78.99
67641;SHT31;54434;50.096;20.082;2022-08-21T06:59:12;22.85;78.56
67641;SHT31;54434;50.096;20.082;2022-08-21T07:01:48;22.92;78.29
67641;SHT31;54434;50.096;20.082;2022-08-21T07:04:24;22.97;78.42
67641;SHT31;54434;50.096;20.082;2022-08-21T07:07:01;23.01;78.01
67641;SHT31;54434;50.096;20.082;2022-08-21T07:09:37;22.95;77.47
67641;SHT31;54434;50.096;20.082;2022-08-21T07:12:13;22.90;77.41
67641;SHT31;54434;50.096;20.082;2022-08-21T07:14:49;22.84;77.58
67641;SHT31;54434;50.096;20.082;2022-08-21T07:17:25;22.92;77.87
67641;SHT31;54434;50.096;20.082;2022-08-21T07:20:02;22.91;77.50
67641;SHT31;54434;50.096;20.082;2022-08-21T07:22:40;22.96;77.74
67641;SHT31;54434;50.096;20.082;2022-08-21T07:25:16;23.11;77.18
67641;SHT31;54434;50.096;20.082;2022-08-21T07:27:53;23.16;77.19
67641;SHT31;54434;50.096;20.082;2022-08-21T07:30:29;23.14;77.33
67641;SHT31;54434;50.096;20.082;2022-08-21T07:33:06;23.17;77.09
67641;SHT31;54434;50.096;20.082;2022-08-21T07:35:42;23.18;76.99
67641;SHT31;54434;50.096;20.082;2022-08-21T07:38:18;23.23;77.01
67641;SHT31;54434;50.096;20.082;2022-08-21T07:40:56;23.21;76.80
67641;SHT31;54434;50.096;20.082;2022-08-21T07:43:36;23.28;76.88
67641;SHT31;54434;50.096;20.082;2022-08-21T07:46:16;23.33;76.52
67641;SHT31;54434;50.096;20.082;2022-08-21T07:48:53;23.29;76.47
67641;SHT31;54434;50.096;20.082;2022-08-21T07:51:30;23.37;76.34
67641;SHT31;54434;50.096;20.082;2022-08-21T07:54:07;23.42;76.37
67641;SHT31;54434;50.096;20.082;2022-08-21T07:56:47;23.52;76.04
67641;SHT31;54434;50.096;20.082;2022-08-21T07:59:23;23.63;75.85
67641;SHT31;54434;50.096;20.082;2022-08-21T08:01:59;23.73;75.61
67641;SHT31;54434;50.096;20.082;2022-08-21T08:04:35;23.80;75.53
67641;SHT31;54434;50.096;20.082;2022-08-21T08:07:22;23.86;75.13
67641;SHT31;54434;50.096;20.082;2022-08-21T08:09:58;23.90;75.31
67641;SHT31;54434;50.096;20.082;2022-08-21T08:12:36;23.97;74.84
67641;SHT31;54434;50.096;20.082;2022-08-21T08:15:18;23.96;74.71
67641;SHT31;54434;50.096;20.082;2022-08-21T08:17:57;23.98;74.70
67641;SHT31;54434;50.096;20.082;2022-08-21T08:20:33;24.01;74.52
67641;SHT31;54434;50.096;20.082;2022-08-21T08:23:10;24.01;74.71
67641;SHT31;54434;50.096;20.082;2022-08-21T08:25:47;24.10;74.78
67641;SHT31;54434;50.096;20.082;2022-08-21T08:28:23;24.16;74.15
67641;SHT31;54434;50.096;20.082;2022-08-21T08:31:00;24.19;74.19
67641;SHT31;54434;50.096;20.082;2022-08-21T08:33:37;24.23;74.16
67641;SHT31;54434;50.096;20.082;2022-08-21T08:36:17;24.25;74.02
67641;SHT31;54434;50.096;20.082;2022-08-21T08:39:04;24.25;73.82
67641;SHT31;54434;50.096;20.082;2022-08-21T08:41:41;24.25;73.67
67641;SHT31;54434;50.096;20.082;2022-08-21T08:44:29;24.25;73.78
67641;SHT31;54434;50.096;20.082;2022-08-21T08:47:06;24.34;73.74
67641;SHT31;54434;50.096;20.082;2022-08-21T08:49:49;24.45;73.61
67641;SHT31;54434;50.096;20.082;2022-08-21T08:52:35;24.53;73.44
67641;SHT31;54434;50.096;20.082;2022-08-21T08:55:19;24.63;72.92
67641;SHT31;54434;50.096;20.082;2022-08-21T08:58:04;24.70;73.00
67641;SHT31;54434;50.096;20.082;2022-08-21T09:00:44;24.87;72.72
67641;SHT31;54434;50.096;20.082;2022-08-21T09:03:27;25.03;72.33
67641;SHT31;54434;50.096;20.082;2022-08-21T09:06:06;25.27;71.96
67641;SHT31;54434;50.096;20.082;2022-08-21T09:09:11;25.50;71.12
67641;SHT31;54434;50.096;20.082;2022-08-21T09:12:06;25.73;70.57
67641;SHT31;54434;50.096;20.082;2022-08-21T09:15:01;25.88;70.44
67641;SHT31;54434;50.096;20.082;2022-08-21T09:18:03;26.08;69.38
67641;SHT31;54434;50.096;20.082;2022-08-21T09:21:00;26.44;69.45
67641;SHT31;54434;50.096;20.082;2022-08-21T09:23:54;26.74;68.12
67641;SHT31;54434;50.096;20.082;2022-08-21T09:26:47;26.97;67.47
67641;SHT31;54434;50.096;20.082;2022-08-21T09:29:35;27.15;66.78
67641;SHT31;54434;50.096;20.082;2022-08-21T09:32:15;27.34;66.64
67641;SHT31;54434;50.096;20.082;2022-08-21T09:35:11;27.39;65.14
67641;SHT31;54434;50.096;20.082;2022-08-21T09:37:53;27.45;65.21
67641;SHT31;54434;50.096;20.082;2022-08-21T09:40:36;27.53;65.19
67641;SHT31;54434;50.096;20.082;2022-08-21T09:43:19;27.66;65.04
67641;SHT31;54434;50.096;20.082;2022-08-21T09:46:08;27.72;64.66
67641;SHT31;54434;50.096;20.082;2022-08-21T09:48:53;27.83;64.54
67641;SHT31;54434;50.096;20.082;2022-08-21T09:51:34;27.90;64.18
67641;SHT31;54434;50.096;20.082;2022-08-21T09:54:14;27.91;63.94
67641;SHT31;54434;50.096;20.082;2022-08-21T09:56:59;27.98;63.46
67641;SHT31;54434;50.096;20.082;2022-08-21T10:00:15;27.95;63.78
67641;SHT31;54434;50.096;20.082;2022-08-21T10:03:18;28.05;63.81
67641;SHT31;54434;50.096;20.082;2022-08-21T10:05:59;28.22;63.64
67641;SHT31;54434;50.096;20.082;2022-08-21T10:08:41;28.20;62.79
67641;SHT31;54434;50.096;20.082;2022-08-21T10:11:18;28.22;62.87
67641;SHT31;54434;50.096;20.082;2022-08-21T10:14:09;28.30;62.85
67641;SHT31;54434;50.096;20.082;2022-08-21T10:17:01;28.28;62.05
67641;SHT31;54434;50.096;20.082;2022-08-21T10:19:51;28.18;62.12
67641;SHT31;54434;50.096;20.082;2022-08-21T10:22:50;28.20;62.56
67641;SHT31;54434;50.096;20.082;2022-08-21T10:25:49;28.33;62.63
67641;SHT31;54434;50.096;20.082;2022-08-21T10:28:53;28.42;62.58
67641;SHT31;54434;50.096;20.082;2022-08-21T10:31:45;28.48;62.30
67641;SHT31;54434;50.096;20.082;2022-08-21T10:34:41;28.52;61.79
67641;SHT31;54434;50.096;20.082;2022-08-21T10:37:40;28.42;61.30
67641;SHT31;54434;50.096;20.082;2022-08-21T10:40:34;28.42;61.31
67641;SHT31;54434;50.096;20.082;2022-08-21T10:43:23;28.43;61.29
67641;SHT31;54434;50.096;20.082;2022-08-21T10:46:17;28.49;61.29
67641;SHT31;54434;50.096;20.082;2022-08-21T10:49:17;28.58;61.33
67641;SHT31;54434;50.096;20.082;2022-08-21T10:52:32;28.75;61.66
67641;SHT31;54434;50.096;20.082;2022-08-21T10:55:33;28.90;60.90
67641;SHT31;54434;50.096;20.082;2022-08-21T10:58:21;28.98;61.02
67641;SHT31;54434;50.096;20.082;2022-08-21T11:01:04;29.14;60.20
67641;SHT31;54434;50.096;20.082;2022-08-21T11:03:46;29.24;59.88
67641;SHT31;54434;50.096;20.082;2022-08-21T11:06:36;29.44;60.34
67641;SHT31;54434;50.096;20.082;2022-08-21T11:09:20;29.64;58.81
67641;SHT31;54434;50.096;20.082;2022-08-21T11:12:03;29.61;57.87
67641;SHT31;54434;50.096;20.082;2022-08-21T11:15:00;29.47;58.51
67641;SHT31;54434;50.096;20.082;2022-08-21T11:18:04;29.46;58.73
67641;SHT31;54434;50.096;20.082;2022-08-21T11:21:01;29.48;59.41
67641;SHT31;54434;50.096;20.082;2022-08-21T11:23:50;29.49;58.83
67641;SHT31;54434;50.096;20.082;2022-08-21T11:26:39;29.42;59.06
67641;SHT31;54434;50.096;20.082;2022-08-21T11:29:26;29.11;59.34
67641;SHT31;54434;50.096;20.082;2022-08-21T11:35:34;28.06;60.40
67641;SHT31;54434;50.096;20.082;2022-08-21T11:38:28;27.68;60.93
67641;SHT31;54434;50.096;20.082;2022-08-21T11:41:21;27.54;61.37
67641;SHT31;54434;50.096;20.082;2022-08-21T11:44:08;27.43;61.38
67641;SHT31;54434;50.096;20.082;2022-08-21T11:46:59;27.25;61.51
67641;SHT31;54434;50.096;20.082;2022-08-21T11:50:02;27.15;61.85
67641;SHT31;54434;50.096;20.082;2022-08-21T11:53:14;27.03;62.30
67641;SHT31;54434;50.096;20.082;2022-08-21T11:56:02;26.99;62.67
67641;SHT31;54434;50.096;20.082;2022-08-21T11:58:45;27.01;62.38
67641;SHT31;54434;50.096;20.082;2022-08-21T12:01:30;26.92;62.22
67641;SHT31;54434;50.096;20.082;2022-08-21T12:04:18;26.84;62.44
67641;SHT31;54434;50.096;20.082;2022-08-21T12:07:13;26.81;62.37
67641;SHT31;54434;50.096;20.082;2022-08-21T12:10:10;26.72;62.40
67641;SHT31;54434;50.096;20.082;2022-08-21T12:12:52;26.68;62.79
67641;SHT31;54434;50.096;20.082;2022-08-21T12:15:41;26.80;62.77
67641;SHT31;54434;50.096;20.082;2022-08-21T12:18:29;26.99;62.52
67641;SHT31;54434;50.096;20.082;2022-08-21T12:21:17;27.15;62.14
67641;SHT31;54434;50.096;20.082;2022-08-21T12:24:15;27.25;62.05
67641;SHT31;54434;50.096;20.082;2022-08-21T12:27:23;27.27;62.22
67641;SHT31;54434;50.096;20.082;2022-08-21T12:30:23;27.31;62.24
67641;SHT31;54434;50.096;20.082;2022-08-21T12:33:23;27.29;62.56
67641;SHT31;54434;50.096;20.082;2022-08-21T12:36:06;27.22;62.96
67641;SHT31;54434;50.096;20.082;2022-08-21T12:38:48;27.14;62.99
67641;SHT31;54434;50.096;20.082;2022-08-21T12:41:30;26.96;63.52
67641;SHT31;54434;50.096;20.082;2022-08-21T12:44:20;26.75;64.15
67641;SHT31;54434;50.096;20.082;2022-08-21T12:47:12;26.52;64.58
67641;SHT31;54434;50.096;20.082;2022-08-21T12:49:59;26.41;65.10
67641;SHT31;54434;50.096;20.082;2022-08-21T12:52:44;26.41;65.60
67641;SHT31;54434;50.096;20.082;2022-08-21T12:55:31;26.44;65.52
67641;SHT31;54434;50.096;20.082;2022-08-21T12:58:20;26.47;65.66
67641;SHT31;54434;50.096;20.082;2022-08-21T13:00:59;26.48;65.70
67641;SHT31;54434;50.096;20.082;2022-08-21T13:03:40;26.43;65.84
67641;SHT31;54434;50.096;20.082;2022-08-21T13:06:32;26.50;65.92
67641;SHT31;54434;50.096;20.082;2022-08-21T13:09:15;26.58;65.82
67641;SHT31;54434;50.096;20.082;2022-08-21T13:12:00;26.66;65.58
67641;SHT31;54434;50.096;20.082;2022-08-21T13:14:42;26.64;65.33
67641;SHT31;54434;50.096;20.082;2022-08-21T13:17:22;26.58;65.28
67641;SHT31;54434;50.096;20.082;2022-08-21T13:20:06;26.49;65.52
67641;SHT31;54434;50.096;20.082;2022-08-21T13:22:54;26.45;65.63
67641;SHT31;54434;50.096;20.082;2022-08-21T13:25:36;26.37;66.02
67641;SHT31;54434;50.096;20.082;2022-08-21T13:28:13;26.28;66.41
67641;SHT31;54434;50.096;20.082;2022-08-21T13:30:51;26.22;66.60
67641;SHT31;54434;50.096;20.082;2022-08-21T13:33:29;26.15;66.63
67641;SHT31;54434;50.096;20.082;2022-08-21T13:36:10;26.06;66.86
67641;SHT31;54434;50.096;20.082;2022-08-21T13:38:53;25.99;67.04
67641;SHT31;54434;50.096;20.082;2022-08-21T13:41:32;25.90;67.08
67641;SHT31;54434;50.096;20.082;2022-08-21T13:44:18;25.78;67.29
67641;SHT31;54434;50.096;20.082;2022-08-21T13:47:06;25.59;68.04
67641;SHT31;54434;50.096;20.082;2022-08-21T13:49:47;25.47;68.69
67641;SHT31;54434;50.096;20.082;2022-08-21T13:52:30;25.38;69.23
67641;SHT31;54434;50.096;20.082;2022-08-21T13:55:12;25.22;69.63
67641;SHT31;54434;50.096;20.082;2022-08-21T13:58:02;25.09;70.07
67641;SHT31;54434;50.096;20.082;2022-08-21T14:00:46;25.06;70.04
67641;SHT31;54434;50.096;20.082;2022-08-21T14:03:33;25.00;70.28
67641;SHT31;54434;50.096;20.082;2022-08-21T14:06:16;24.98;70.39
67641;SHT31;54434;50.096;20.082;2022-08-21T14:08:58;24.97;70.32
67641;SHT31;54434;50.096;20.082;2022-08-21T14:11:43;24.95;70.29
67641;SHT31;54434;50.096;20.082;2022-08-21T14:14:22;24.94;70.57
67641;SHT31;54434;50.096;20.082;2022-08-21T14:17:04;24.94;70.59
67641;SHT31;54434;50.096;20.082;2022-08-21T14:20:04;24.96;70.59
67641;SHT31;54434;50.096;20.082;2022-08-21T14:22:44;25.00;70.66
67641;SHT31;54434;50.096;20.082;2022-08-21T14:25:30;25.08;70.55
67641;SHT31;54434;50.096;20.082;2022-08-21T14:28:22;25.13;70.50
67641;SHT31;54434;50.096;20.082;2022-08-21T14:31:18;25.10;70.24
67641;SHT31;54434;50.096;20.082;2022-08-21T14:34:01;25.06;70.41
67641;SHT31;54434;50.096;20.082;2022-08-21T14:36:51;25.02;70.17
67641;SHT31;54434;50.096;20.082;2022-08-21T14:39:29;24.86;70.36
67641;SHT31;54434;50.096;20.082;2022-08-21T14:42:05;24.75;70.74
67641;SHT31;54434;50.096;20.082;2022-08-21T14:44:42;24.63;70.84
67641;SHT31;54434;50.096;20.082;2022-08-21T14:47:18;24.52;71.01
67641;SHT31;54434;50.096;20.082;2022-08-21T14:49:54;24.38;71.34
67641;SHT31;54434;50.096;20.082;2022-08-21T14:52:31;24.26;71.52
67641;SHT31;54434;50.096;20.082;2022-08-21T14:55:09;24.19;71.65
67641;SHT31;54434;50.096;20.082;2022-08-21T14:57:48;24.06;71.76
67641;SHT31;54434;50.096;20.082;2022-08-21T15:00:27;23.90;72.39
67641;SHT31;54434;50.096;20.082;2022-08-21T15:03:06;23.76;72.81
67641;SHT31;54434;50.096;20.082;2022-08-21T15:05:42;23.66;72.99
67641;SHT31;54434;50.096;20.082;2022-08-21T15:08:18;23.55;73.00
67641;SHT31;54434;50.096;20.082;2022-08-21T15:10:54;23.49;73.68
67641;SHT31;54434;50.096;20.082;2022-08-21T15:13:44;23.55;73.93
67641;SHT31;54434;50.096;20.082;2022-08-21T15:16:24;23.54;73.71
67641;SHT31;54434;50.096;20.082;2022-08-21T15:19:02;23.51;73.72
67641;SHT31;54434;50.096;20.082;2022-08-21T15:21:38;23.56;73.96
67641;SHT31;54434;50.096;20.082;2022-08-21T15:24:14;23.56;73.76
67641;SHT31;54434;50.096;20.082;2022-08-21T15:26:51;23.50;73.87
67641;SHT31;54434;50.096;20.082;2022-08-21T15:29:29;23.41;74.20
67641;SHT31;54434;50.096;20.082;2022-08-21T15:32:20;23.34;74.56
67641;SHT31;54434;50.096;20.082;2022-08-21T15:35:02;23.30;74.87
67641;SHT31;54434;50.096;20.082;2022-08-21T15:37:39;23.21;75.34
67641;SHT31;54434;50.096;20.082;2022-08-21T15:40:16;23.10;75.52
67641;SHT31;54434;50.096;20.082;2022-08-21T15:42:55;22.98;76.02
67641;SHT31;54434;50.096;20.082;2022-08-21T15:45:35;22.85;76.24
67641;SHT31;54434;50.096;20.082;2022-08-21T15:48:11;22.75;76.55
67641;SHT31;54434;50.096;20.082;2022-08-21T15:50:48;22.61;76.94
67641;SHT31;54434;50.096;20.082;2022-08-21T15:53:24;22.51;77.13
67641;SHT31;54434;50.096;20.082;2022-08-21T15:56:04;22.29;77.69
67641;SHT31;54434;50.096;20.082;2022-08-21T15:58:50;21.80;79.07
67641;SHT31;54434;50.096;20.082;2022-08-21T16:01:32;21.29;80.22
67641;SHT31;54434;50.096;20.082;2022-08-21T16:04:19;20.95;81.02
67641;SHT31;54434;50.096;20.082;2022-08-21T16:06:59;20.70;81.56
67641;SHT31;54434;50.096;20.082;2022-08-21T16:09:40;20.50;81.78
67641;SHT31;54434;50.096;20.082;2022-08-21T16:12:18;20.35;81.93
67641;SHT31;54434;50.096;20.082;2022-08-21T16:14:59;20.23;82.41
67641;SHT31;54434;50.096;20.082;2022-08-21T16:17:42;20.21;82.47
67641;SHT31;54434;50.096;20.082;2022-08-21T16:20:26;20.16;82.38
67641;SHT31;54434;50.096;20.082;2022-08-21T16:23:03;20.11;82.18
67641;SHT31;54434;50.096;20.082;2022-08-21T16:25:39;20.01;82.70
67641;SHT31;54434;50.096;20.082;2022-08-21T16:28:17;19.87;82.87
67641;SHT31;54434;50.096;20.082;2022-08-21T16:30:55;19.79;83.31
67641;SHT31;54434;50.096;20.082;2022-08-21T16:33:33;19.72;83.55
67641;SHT31;54434;50.096;20.082;2022-08-21T16:36:14;19.65;84.06
67641;SHT31;54434;50.096;20.082;2022-08-21T16:38:51;19.62;84.11
67641;SHT31;54434;50.096;20.082;2022-08-21T16:41:30;19.71;83.74
67641;SHT31;54434;50.096;20.082;2022-08-21T16:44:07;19.64;83.84
67641;SHT31;54434;50.096;20.082;2022-08-21T16:46:44;19.61;83.86
67641;SHT31;54434;50.096;20.082;2022-08-21T16:49:21;19.65;83.88